createdAt,value
2023-02-11T00:00:54.810Z,4.31
2023-02-11T00:03:21.448Z,4.30
2023-02-11T00:06:00.412Z,4.28
2023-02-11T00:08:26.907Z,4.26
2023-02-11T00:10:58.010Z,4.27
2023-02-11T00:13:25.119Z,4.25
2023-02-11T00:15:51.819Z,4.24
2023-02-11T00:18:18.500Z,4.23
2023-02-11T00:20:44.887Z,4.24
2023-02-11T00:23:11.536Z,4.26
2023-02-11T00:25:42.056Z,4.28
2023-02-11T00:28:09.623Z,4.29
2023-02-11T00:30:36.681Z,4.30
2023-02-11T00:33:03.982Z,4.31
2023-02-11T00:35:30.406Z,4.32
2023-02-11T00:37:57.080Z,4.33
2023-02-11T00:40:23.703Z,4.33
2023-02-11T00:42:50.137Z,4.34
2023-02-11T00:45:16.564Z,4.37
2023-02-11T00:47:43.022Z,4.37
2023-02-11T00:50:09.603Z,4.40
2023-02-11T00:52:36.003Z,4.40
2023-02-11T00:55:02.388Z,4.38
2023-02-11T00:57:28.874Z,4.39
2023-02-11T00:59:55.299Z,4.40
2023-02-11T01:02:21.771Z,4.37
2023-02-11T01:04:48.260Z,4.35
2023-02-11T01:07:14.860Z,4.33
2023-02-11T01:09:41.319Z,4.32
2023-02-11T01:12:07.714Z,4.31
2023-02-11T01:14:34.088Z,4.28
2023-02-11T01:17:00.474Z,4.26
2023-02-11T01:19:26.904Z,4.22
2023-02-11T01:21:53.306Z,4.19
2023-02-11T01:24:19.682Z,4.19
2023-02-11T01:26:46.162Z,4.18
2023-02-11T01:29:12.587Z,4.18
2023-02-11T01:31:39.108Z,4.15
2023-02-11T01:34:05.646Z,4.14
2023-02-11T01:36:32.080Z,4.13
2023-02-11T01:38:58.609Z,4.12
2023-02-11T01:41:25.022Z,4.10
2023-02-11T01:43:51.479Z,4.08
2023-02-11T01:46:20.529Z,4.05
2023-02-11T01:48:51.698Z,4.01
2023-02-11T01:51:25.735Z,3.98
2023-02-11T01:54:29.033Z,3.95
2023-02-11T01:57:17.708Z,3.89
2023-02-11T01:59:56.336Z,3.84
2023-02-11T02:02:30.546Z,3.80
2023-02-11T02:05:05.988Z,3.76
2023-02-11T02:07:46.056Z,3.71
2023-02-11T02:10:19.098Z,3.68
2023-02-11T02:12:45.534Z,3.67
2023-02-11T02:15:19.381Z,3.62
2023-02-11T02:17:57.006Z,3.62
2023-02-11T02:20:44.302Z,3.59
2023-02-11T02:23:41.436Z,3.54
2023-02-11T02:26:27.400Z,3.49
2023-02-11T02:29:15.713Z,3.46
2023-02-11T02:31:59.360Z,3.43
2023-02-11T02:34:38.100Z,3.43
2023-02-11T02:37:17.235Z,3.41
2023-02-11T02:39:47.774Z,3.38
2023-02-11T02:42:15.003Z,3.36
2023-02-11T02:44:41.509Z,3.37
2023-02-11T02:47:07.953Z,3.34
2023-02-11T02:49:34.356Z,3.33
2023-02-11T02:52:07.800Z,3.30
2023-02-11T02:54:44.975Z,3.27
2023-02-11T02:57:30.012Z,3.21
2023-02-11T03:00:22.715Z,3.20
2023-02-11T03:03:07.664Z,3.15
2023-02-11T03:06:15.380Z,3.12
2023-02-11T03:08:56.970Z,3.09
2023-02-11T03:11:25.646Z,3.07
2023-02-11T03:13:54.562Z,3.06
2023-02-11T03:16:27.809Z,3.05
2023-02-11T03:19:05.157Z,3.03
2023-02-11T03:21:33.625Z,3.04
2023-02-11T03:24:05.814Z,3.02
2023-02-11T03:26:42.878Z,3.01
2023-02-11T03:29:24.265Z,2.95
2023-02-11T03:32:27.915Z,2.86
2023-02-11T03:35:32.199Z,2.79
2023-02-11T03:38:11.524Z,2.75
2023-02-11T03:40:43.578Z,2.70
2023-02-11T03:43:20.262Z,2.66
2023-02-11T03:45:50.781Z,2.63
2023-02-11T03:48:25.339Z,2.60
2023-02-11T03:50:54.021Z,2.56
2023-02-11T03:53:22.755Z,2.54
2023-02-11T03:55:51.613Z,2.51
2023-02-11T03:58:18.221Z,2.48
2023-02-11T04:00:45.008Z,2.46
2023-02-11T04:03:12.773Z,2.46
2023-02-11T04:05:39.586Z,2.43
2023-02-11T04:08:06.504Z,2.42
2023-02-11T04:10:33.367Z,2.38
2023-02-11T04:12:59.821Z,2.36
2023-02-11T04:15:26.256Z,2.34
2023-02-11T04:17:52.892Z,2.33
2023-02-11T04:20:19.516Z,2.29
2023-02-11T04:22:45.931Z,2.25
2023-02-11T04:25:12.455Z,2.25
2023-02-11T04:27:38.909Z,2.26
2023-02-11T04:30:06.361Z,2.26
2023-02-11T04:32:32.794Z,2.24
2023-02-11T04:34:59.191Z,2.29
2023-02-11T04:37:25.614Z,2.29
2023-02-11T04:39:52.029Z,2.31
2023-02-11T04:42:18.412Z,2.35
2023-02-11T04:44:44.835Z,2.37
2023-02-11T04:47:13.375Z,2.39
2023-02-11T04:49:39.779Z,2.39
2023-02-11T04:52:06.241Z,2.40
2023-02-11T04:54:32.688Z,2.40
2023-02-11T04:56:59.094Z,2.39
2023-02-11T04:59:25.515Z,2.35
2023-02-11T05:01:51.951Z,2.31
2023-02-11T05:04:18.668Z,2.27
2023-02-11T05:06:45.105Z,2.24
2023-02-11T05:09:13.231Z,2.24
2023-02-11T05:11:40.077Z,2.22
2023-02-11T05:14:06.940Z,2.20
2023-02-11T05:16:33.978Z,2.19
2023-02-11T05:19:00.562Z,2.16
2023-02-11T05:21:26.985Z,2.15
2023-02-11T05:23:53.468Z,2.13
2023-02-11T05:26:19.880Z,2.13
2023-02-11T05:28:46.349Z,2.15
2023-02-11T05:31:14.613Z,2.18
2023-02-11T05:33:41.741Z,2.24
2023-02-11T05:36:10.381Z,2.29
2023-02-11T05:38:37.687Z,2.34
2023-02-11T05:41:05.274Z,2.39
2023-02-11T05:43:31.784Z,2.41
2023-02-11T05:45:58.622Z,2.44
2023-02-11T05:48:25.082Z,2.47
2023-02-11T05:50:51.565Z,2.49
2023-02-11T05:53:17.996Z,2.50
2023-02-11T05:55:44.794Z,2.51
2023-02-11T05:58:11.383Z,2.51
2023-02-11T06:00:38.163Z,2.54
2023-02-11T06:03:04.788Z,2.57
2023-02-11T06:05:31.932Z,2.60
2023-02-11T06:07:58.613Z,2.64
2023-02-11T06:10:25.094Z,2.67
2023-02-11T06:12:51.541Z,2.68
2023-02-11T06:15:18.174Z,2.70
2023-02-11T06:17:44.580Z,2.73
2023-02-11T06:20:11.792Z,2.77
2023-02-11T06:22:38.627Z,2.82
2023-02-11T06:25:05.616Z,2.86
2023-02-11T06:27:32.270Z,2.89
2023-02-11T06:29:58.801Z,2.92
2023-02-11T06:32:43.219Z,2.96
2023-02-11T06:35:12.359Z,2.97
2023-02-11T06:37:39.648Z,2.99
2023-02-11T06:40:06.362Z,3.02
2023-02-11T06:42:32.828Z,3.03
2023-02-11T06:44:59.300Z,3.05
2023-02-11T06:47:25.789Z,3.07
2023-02-11T06:49:52.206Z,3.11
2023-02-11T06:52:18.590Z,3.14
2023-02-11T06:54:44.978Z,3.17
2023-02-11T06:57:11.497Z,3.23
2023-02-11T06:59:37.941Z,3.27
2023-02-11T07:02:04.554Z,3.31
2023-02-11T07:04:30.955Z,3.35
2023-02-11T07:06:57.385Z,3.40
2023-02-11T07:09:23.799Z,3.46
2023-02-11T07:11:50.223Z,3.51
2023-02-11T07:14:16.952Z,3.55
2023-02-11T07:16:43.420Z,3.60
2023-02-11T07:19:10.017Z,3.64
2023-02-11T07:21:36.448Z,3.68
2023-02-11T07:24:10.329Z,3.71
2023-02-11T07:26:37.282Z,3.72
2023-02-11T07:29:03.707Z,3.76
2023-02-11T07:31:30.843Z,3.80
2023-02-11T07:34:00.182Z,3.84
2023-02-11T07:36:29.187Z,3.87
2023-02-11T07:38:55.688Z,3.92
2023-02-11T07:41:23.497Z,3.95
2023-02-11T07:43:50.300Z,4.01
2023-02-11T07:46:24.975Z,4.06
2023-02-11T07:48:51.944Z,4.12
2023-02-11T07:51:24.186Z,4.18
2023-02-11T07:53:51.855Z,4.23
2023-02-11T07:56:20.085Z,4.27
2023-02-11T07:58:46.966Z,4.32
2023-02-11T08:01:19.371Z,4.38
2023-02-11T08:03:45.877Z,4.43
2023-02-11T08:06:14.678Z,4.48
2023-02-11T08:08:41.781Z,4.53
2023-02-11T08:11:21.265Z,4.58
2023-02-11T08:13:48.230Z,4.62
2023-02-11T08:16:23.991Z,4.67
2023-02-11T08:18:51.773Z,4.72
2023-02-11T08:21:19.745Z,4.75
2023-02-11T08:23:47.203Z,4.77
2023-02-11T08:26:16.507Z,4.78
2023-02-11T08:28:45.474Z,4.80
2023-02-11T08:31:18.425Z,4.80
2023-02-11T08:33:45.971Z,4.82
2023-02-11T08:36:15.495Z,4.84
2023-02-11T08:38:42.311Z,4.86
2023-02-11T08:41:08.902Z,4.89
2023-02-11T08:43:36.390Z,4.92
2023-02-11T08:46:03.337Z,4.94
2023-02-11T08:48:30.226Z,4.97
2023-02-11T08:50:57.027Z,4.99
2023-02-11T08:53:23.858Z,5.03
2023-02-11T08:55:52.002Z,5.05
2023-02-11T08:58:19.291Z,5.08
2023-02-11T09:00:46.554Z,5.11
2023-02-11T09:03:14.714Z,5.11
2023-02-11T09:05:43.238Z,5.13
2023-02-11T09:08:10.128Z,5.13
2023-02-11T09:10:36.553Z,5.14
2023-02-11T09:13:03.453Z,5.17
2023-02-11T09:15:30.398Z,5.19
2023-02-11T09:17:57.042Z,5.20
2023-02-11T09:20:23.874Z,5.22
2023-02-11T09:22:50.551Z,5.23
2023-02-11T09:25:16.982Z,5.26
2023-02-11T09:27:43.440Z,5.27
2023-02-11T09:30:10.489Z,5.30
2023-02-11T09:32:37.153Z,5.35
2023-02-11T09:35:04.350Z,5.42
2023-02-11T09:37:30.759Z,5.46
2023-02-11T09:39:57.146Z,5.53
2023-02-11T09:42:59.753Z,5.57
2023-02-11T09:45:30.141Z,5.62
2023-02-11T09:48:06.353Z,5.66
2023-02-11T09:50:40.797Z,5.69
2023-02-11T09:53:41.355Z,5.71
2023-02-11T09:56:13.810Z,5.77
2023-02-11T09:58:43.321Z,5.81
2023-02-11T10:01:35.420Z,5.83
2023-02-11T10:04:23.034Z,5.83
2023-02-11T10:06:55.052Z,5.85
2023-02-11T10:09:45.680Z,5.88
2023-02-11T10:12:18.041Z,5.93
2023-02-11T10:15:09.337Z,5.96
2023-02-11T10:17:44.791Z,5.99
2023-02-11T10:20:17.330Z,6.02
2023-02-11T10:22:50.451Z,6.02
2023-02-11T10:25:27.569Z,6.06
2023-02-11T10:27:58.065Z,6.08
2023-02-11T10:30:37.119Z,6.04
2023-02-11T10:33:32.410Z,6.05
2023-02-11T10:35:59.325Z,6.11
2023-02-11T10:38:26.362Z,6.15
2023-02-11T10:40:52.949Z,6.15
2023-02-11T10:43:24.392Z,6.19
2023-02-11T10:45:53.178Z,6.21
2023-02-11T10:48:44.045Z,6.24
2023-02-11T10:51:14.649Z,6.30
2023-02-11T10:53:41.361Z,6.34
2023-02-11T10:56:12.711Z,6.38
2023-02-11T10:59:01.296Z,6.42
2023-02-11T11:01:52.508Z,6.49
2023-02-11T11:04:35.545Z,6.54
2023-02-11T11:07:16.848Z,6.59
2023-02-11T11:09:50.352Z,6.63
2023-02-11T11:12:25.853Z,6.66
2023-02-11T11:14:56.263Z,6.69
2023-02-11T11:17:22.801Z,6.72
2023-02-11T11:19:49.208Z,6.76
2023-02-11T11:22:22.243Z,6.81
2023-02-11T11:24:55.226Z,6.83
2023-02-11T11:27:24.741Z,6.87
2023-02-11T11:29:56.112Z,6.93
2023-02-11T11:32:25.579Z,6.99
2023-02-11T11:34:59.817Z,7.04
2023-02-11T11:37:29.400Z,7.06
2023-02-11T11:40:22.406Z,7.08
2023-02-11T11:43:12.165Z,7.15
2023-02-11T11:45:38.814Z,7.20
2023-02-11T11:48:26.951Z,7.23
2023-02-11T11:50:59.790Z,7.35
2023-02-11T11:53:34.224Z,7.43
2023-02-11T11:56:05.306Z,7.48
2023-02-11T11:58:33.708Z,7.51
2023-02-11T12:01:39.329Z,7.58
2023-02-11T12:04:36.485Z,7.61
2023-02-11T12:07:23.318Z,7.66
2023-02-11T12:10:09.769Z,7.72
2023-02-11T12:12:55.872Z,7.76
2023-02-11T12:15:42.958Z,7.81
2023-02-11T12:18:50.672Z,7.81
2023-02-11T12:21:52.531Z,7.78
2023-02-11T12:25:00.217Z,7.77
2023-02-11T12:27:38.807Z,7.80
2023-02-11T12:30:34.183Z,7.80
2023-02-11T12:33:28.634Z,7.78
2023-02-11T12:36:16.884Z,7.80
2023-02-11T12:39:29.411Z,7.80
2023-02-11T12:42:32.725Z,7.80
2023-02-11T12:45:11.054Z,7.76
2023-02-11T12:47:46.641Z,7.78
2023-02-11T12:50:21.057Z,7.78
2023-02-11T12:52:53.662Z,7.81
2023-02-11T12:55:23.425Z,7.82
2023-02-11T12:57:53.535Z,7.84
2023-02-11T13:00:26.808Z,7.85
2023-02-11T13:03:33.099Z,7.85
2023-02-11T13:06:05.376Z,7.88
2023-02-11T13:08:46.137Z,7.93
2023-02-11T13:11:44.087Z,7.97
2023-02-11T13:14:27.002Z,8.00
2023-02-11T13:16:55.051Z,8.05
2023-02-11T13:19:30.419Z,8.09
2023-02-11T13:22:05.590Z,8.07
2023-02-11T13:24:44.547Z,8.05
2023-02-11T13:27:20.261Z,8.07
2023-02-11T13:30:14.745Z,8.07
2023-02-11T13:32:56.603Z,8.02
2023-02-11T13:35:40.921Z,8.01
2023-02-11T13:38:16.350Z,8.01
2023-02-11T13:40:43.395Z,8.02
2023-02-11T13:43:23.251Z,8.03
2023-02-11T13:45:52.279Z,8.05
2023-02-11T13:48:24.834Z,8.09
2023-02-11T13:50:58.943Z,8.07
2023-02-11T13:53:26.003Z,8.06
2023-02-11T13:56:09.952Z,8.05
2023-02-11T13:58:46.922Z,8.04
2023-02-11T14:01:39.642Z,7.98
2023-02-11T14:04:51.282Z,7.99
2023-02-11T14:07:51.883Z,7.95
2023-02-11T14:10:40.951Z,7.95
2023-02-11T14:13:37.032Z,7.95
2023-02-11T14:16:36.874Z,7.97
2023-02-11T14:19:04.528Z,7.96
2023-02-11T14:21:38.266Z,7.98
2023-02-11T14:24:04.951Z,7.98
2023-02-11T14:26:36.432Z,7.97
2023-02-11T14:29:17.929Z,7.96
2023-02-11T14:31:54.991Z,7.95
2023-02-11T14:34:40.995Z,7.95
2023-02-11T14:37:30.402Z,7.94
2023-02-11T14:40:26.781Z,7.89
2023-02-11T14:42:54.770Z,7.88
2023-02-11T14:45:26.312Z,7.90
2023-02-11T14:48:08.299Z,7.91
2023-02-11T14:50:43.160Z,7.94
2023-02-11T14:53:22.517Z,7.91
2023-02-11T14:55:54.304Z,7.90
2023-02-11T14:58:23.995Z,7.89
2023-02-11T15:01:09.049Z,7.86
2023-02-11T15:03:38.460Z,7.86
2023-02-11T15:06:13.919Z,7.83
2023-02-11T15:08:47.340Z,7.81
2023-02-11T15:11:17.387Z,7.78
2023-02-11T15:13:47.484Z,7.77
2023-02-11T15:16:18.564Z,7.75
2023-02-11T15:19:01.257Z,7.71
2023-02-11T15:21:30.202Z,7.72
2023-02-11T15:24:02.274Z,7.72
2023-02-11T15:26:29.824Z,7.71
2023-02-11T15:28:56.292Z,7.70
2023-02-11T15:31:25.437Z,7.68
2023-02-11T15:33:53.161Z,7.66
2023-02-11T15:36:28.194Z,7.67
2023-02-11T15:39:29.312Z,7.65
2023-02-11T15:41:55.860Z,7.64
2023-02-11T15:44:33.073Z,7.64
2023-02-11T15:46:59.916Z,7.65
2023-02-11T15:49:26.853Z,7.66
2023-02-11T15:51:55.722Z,7.68
2023-02-11T15:54:26.787Z,7.68
2023-02-11T15:56:58.858Z,7.68
2023-02-11T15:59:32.693Z,7.68
2023-02-11T16:02:09.123Z,7.67
2023-02-11T16:04:36.263Z,7.67
2023-02-11T16:07:03.097Z,7.68
2023-02-11T16:09:35.231Z,7.69
2023-02-11T16:12:24.319Z,7.71
2023-02-11T16:14:50.746Z,7.70
2023-02-11T16:17:28.948Z,7.72
2023-02-11T16:19:55.897Z,7.73
2023-02-11T16:22:29.913Z,7.73
2023-02-11T16:24:59.915Z,7.73
2023-02-11T16:27:34.011Z,7.71
2023-02-11T16:30:00.647Z,7.69
2023-02-11T16:32:28.673Z,7.70
2023-02-11T16:34:58.010Z,7.70
2023-02-11T16:37:25.386Z,7.69
2023-02-11T16:39:58.394Z,7.68
2023-02-11T16:42:25.192Z,7.67
2023-02-11T16:44:51.666Z,7.67
2023-02-11T16:47:24.333Z,7.67
2023-02-11T16:49:50.977Z,7.67
2023-02-11T16:52:18.145Z,7.68
2023-02-11T16:54:44.667Z,7.67
2023-02-11T16:57:22.660Z,7.68
2023-02-11T16:59:49.537Z,7.67
2023-02-11T17:02:24.393Z,7.67
2023-02-11T17:04:53.440Z,7.67
2023-02-11T17:07:19.937Z,7.66
2023-02-11T17:09:46.446Z,7.67
2023-02-11T17:12:12.855Z,7.65
2023-02-11T17:14:39.306Z,7.61
2023-02-11T17:17:05.808Z,7.60
2023-02-11T17:19:32.257Z,7.59
2023-02-11T17:21:58.769Z,7.58
2023-02-11T17:24:25.114Z,7.58
2023-02-11T17:26:51.648Z,7.58
2023-02-11T17:29:22.514Z,7.58
2023-02-11T17:31:49.778Z,7.56
2023-02-11T17:34:16.791Z,7.55
2023-02-11T17:36:43.317Z,7.55
2023-02-11T17:39:10.287Z,7.55
2023-02-11T17:41:38.355Z,7.55
2023-02-11T17:44:06.128Z,7.51
2023-02-11T17:46:34.477Z,7.49
2023-02-11T17:49:01.947Z,7.49
2023-02-11T17:51:30.477Z,7.46
2023-02-11T17:54:02.543Z,7.44
2023-02-11T17:56:32.169Z,7.42
2023-02-11T17:58:58.735Z,7.42
2023-02-11T18:01:29.730Z,7.42
2023-02-11T18:03:56.218Z,7.40
2023-02-11T18:06:22.732Z,7.40
2023-02-11T18:08:49.483Z,7.43
2023-02-11T18:11:16.627Z,7.43
2023-02-11T18:13:45.163Z,7.42
2023-02-11T18:16:15.893Z,7.44
2023-02-11T18:18:43.475Z,7.44
2023-02-11T18:21:18.160Z,7.45
2023-02-11T18:23:45.256Z,7.44
2023-02-11T18:26:13.624Z,7.44
2023-02-11T18:28:42.667Z,7.44
2023-02-11T18:31:10.884Z,7.43
2023-02-11T18:33:38.970Z,7.40
2023-02-11T18:36:11.760Z,7.41
2023-02-11T18:38:38.702Z,7.37
2023-02-11T18:41:05.468Z,7.34
2023-02-11T18:43:33.540Z,7.32
2023-02-11T18:46:01.569Z,7.29
2023-02-11T18:48:28.512Z,7.26
2023-02-11T18:50:55.448Z,7.22
2023-02-11T18:53:23.051Z,7.18
2023-02-11T18:55:49.617Z,7.15
2023-02-11T18:58:16.253Z,7.13
2023-02-11T19:00:45.621Z,7.09
2023-02-11T19:03:12.018Z,7.07
2023-02-11T19:05:47.368Z,7.05
2023-02-11T19:08:14.199Z,7.01
2023-02-11T19:10:42.119Z,7.00
2023-02-11T19:13:08.810Z,6.97
2023-02-11T19:15:40.202Z,6.96
2023-02-11T19:18:06.621Z,6.95
2023-02-11T19:20:33.386Z,6.95
2023-02-11T19:23:00.701Z,6.95
2023-02-11T19:25:27.232Z,6.95
2023-02-11T19:27:53.667Z,6.94
2023-02-11T19:30:20.231Z,6.93
2023-02-11T19:32:46.736Z,6.91
2023-02-11T19:35:13.187Z,6.90
2023-02-11T19:37:39.606Z,6.87
2023-02-11T19:40:07.443Z,6.86
2023-02-11T19:42:33.910Z,6.84
2023-02-11T19:45:00.272Z,6.83
2023-02-11T19:47:27.601Z,6.81
2023-02-11T19:49:54.453Z,6.82
2023-02-11T19:52:20.995Z,6.83
2023-02-11T19:54:47.472Z,6.83
2023-02-11T19:57:13.871Z,6.84
2023-02-11T19:59:40.403Z,6.85
2023-02-11T20:02:06.820Z,6.87
2023-02-11T20:04:33.362Z,6.88
2023-02-11T20:06:59.808Z,6.90
2023-02-11T20:09:27.309Z,6.91
2023-02-11T20:11:53.765Z,6.91
2023-02-11T20:14:20.275Z,6.92
2023-02-11T20:16:49.605Z,6.92
2023-02-11T20:19:18.884Z,6.93
2023-02-11T20:21:47.562Z,6.95
2023-02-11T20:24:15.390Z,6.96
2023-02-11T20:26:42.468Z,6.97
2023-02-11T20:29:09.090Z,6.99
2023-02-11T20:31:35.768Z,6.99
2023-02-11T20:34:03.016Z,7.00
2023-02-11T20:36:32.277Z,7.00
2023-02-11T20:38:59.924Z,7.01
2023-02-11T20:41:34.163Z,7.01
2023-02-11T20:44:04.374Z,7.03
2023-02-11T20:46:32.958Z,7.03
2023-02-11T20:49:00.727Z,7.04
2023-02-11T20:51:30.371Z,7.04
2023-02-11T20:53:57.059Z,7.01
2023-02-11T20:56:29.161Z,7.01
2023-02-11T20:58:57.887Z,6.99
2023-02-11T21:01:33.820Z,6.97
2023-02-11T21:04:06.274Z,6.96
2023-02-11T21:06:43.974Z,6.93
2023-02-11T21:09:14.014Z,6.93
2023-02-11T21:11:41.416Z,6.90
2023-02-11T21:14:08.326Z,6.89
2023-02-11T21:16:34.747Z,6.87
2023-02-11T21:19:01.325Z,6.87
2023-02-11T21:21:27.771Z,6.85
2023-02-11T21:23:56.250Z,6.86
2023-02-11T21:26:23.009Z,6.87
2023-02-11T21:28:50.063Z,6.87
2023-02-11T21:31:22.948Z,6.88
2023-02-11T21:33:50.854Z,6.86
2023-02-11T21:36:17.353Z,6.85
2023-02-11T21:38:43.829Z,6.85
2023-02-11T21:41:11.823Z,6.84
2023-02-11T21:43:38.506Z,6.83
2023-02-11T21:46:14.011Z,6.80
2023-02-11T21:48:40.703Z,6.80
2023-02-11T21:51:11.214Z,6.80
2023-02-11T21:53:37.648Z,6.78
2023-02-11T21:56:13.037Z,6.77
2023-02-11T21:58:39.534Z,6.74
2023-02-11T22:01:15.524Z,6.73
2023-02-11T22:03:42.672Z,6.70
2023-02-11T22:06:11.174Z,6.69
2023-02-11T22:08:38.593Z,6.67
2023-02-11T22:11:07.009Z,6.66
2023-02-11T22:13:34.455Z,6.62
2023-02-11T22:16:02.846Z,6.59
2023-02-11T22:18:30.402Z,6.54
2023-02-11T22:21:19.080Z,6.49
2023-02-11T22:23:46.001Z,6.44
2023-02-11T22:26:16.532Z,6.43
2023-02-11T22:28:43.484Z,6.36
2023-02-11T22:31:13.413Z,6.31
2023-02-11T22:33:40.337Z,6.25
2023-02-11T22:36:12.185Z,6.18
2023-02-11T22:38:38.607Z,6.12
2023-02-11T22:41:07.795Z,6.07
2023-02-11T22:43:34.251Z,6.02
2023-02-11T22:46:05.982Z,5.99
2023-02-11T22:48:33.462Z,5.94
2023-02-11T22:51:12.309Z,5.88
2023-02-11T22:53:38.920Z,5.79
2023-02-11T22:56:15.056Z,5.73
2023-02-11T22:58:41.930Z,5.66
2023-02-11T23:01:08.473Z,5.62
2023-02-11T23:03:35.543Z,5.60
2023-02-11T23:06:02.064Z,5.57
2023-02-11T23:08:30.327Z,5.55
2023-02-11T23:11:02.414Z,5.52
2023-02-11T23:13:28.841Z,5.51
2023-02-11T23:15:55.652Z,5.50
2023-02-11T23:18:22.316Z,5.50
2023-02-11T23:20:48.750Z,5.51
2023-02-11T23:23:15.169Z,5.51
2023-02-11T23:25:44.817Z,5.53
2023-02-11T23:28:12.299Z,5.54
2023-02-11T23:30:39.343Z,5.53
2023-02-11T23:33:05.935Z,5.52
2023-02-11T23:35:32.772Z,5.50
2023-02-11T23:37:59.214Z,5.49
2023-02-11T23:40:25.758Z,5.49
2023-02-11T23:42:52.307Z,5.50
2023-02-11T23:45:18.725Z,5.51
2023-02-11T23:47:45.185Z,5.50
2023-02-11T23:50:11.815Z,5.50
2023-02-11T23:52:38.273Z,5.51
2023-02-11T23:55:05.185Z,5.52
2023-02-11T23:57:32.850Z,5.55
2023-02-11T23:59:59.276Z,5.57
